Aviation Digital Data Service (ADDS)

Output produced by METARs form (1500 UTC 21 May 2019)
found at http://www.aviationweather.gov/metar/data/
 
METAR text: ROYN 211400Z AUTO 02007KT 9999 NSC 24/15 Q1011
Conditions at: ROYN (YONAGUNI AIRPORT, JP) observed 1400 UTC 21 May 2019
Temperature: 24.0°C (75°F)
Dewpoint: 15.0°C (59°F) [RH = 57%]
Pressure (altimeter): 29.85 inches Hg (1011.0 mb)
Winds: from the NNE (20 degrees) at 8 MPH (7 knots; 3.6 m/s)
Visibility: 6 or more miles (10+ km)
Ceiling: at least 12,000 feet AGL
Clouds: sky clear below 12,000 feet AGL
Weather: no significant weather observed at this time

METAR text: ROYN 211300Z AUTO 04010KT 9999 NSC 24/15 Q1011
Conditions at: ROYN (YONAGUNI AIRPORT, JP) observed 1300 UTC 21 May 2019
Temperature: 24.0°C (75°F)
Dewpoint: 15.0°C (59°F) [RH = 57%]
Pressure (altimeter): 29.85 inches Hg (1011.0 mb)
Winds: from the NE (40 degrees) at 12 MPH (10 knots; 5.1 m/s)
Visibility: 6 or more miles (10+ km)
Ceiling: at least 12,000 feet AGL
Clouds: sky clear below 12,000 feet AGL
Weather: no significant weather observed at this time

METAR text: ROYN 211200Z AUTO 04011KT 9999 NSC 24/15 Q1011
Conditions at: ROYN (YONAGUNI AIRPORT, JP) observed 1200 UTC 21 May 2019
Temperature: 24.0°C (75°F)
Dewpoint: 15.0°C (59°F) [RH = 57%]
Pressure (altimeter): 29.85 inches Hg (1011.0 mb)
Winds: from the NE (40 degrees) at 13 MPH (11 knots; 5.7 m/s)
Visibility: 6 or more miles (10+ km)
Ceiling: at least 12,000 feet AGL
Clouds: sky clear below 12,000 feet AGL
Weather: no significant weather observed at this time

METAR text: ROYN 211100Z AUTO 04014KT 9999 NSC 24/16 Q1010
Conditions at: ROYN (YONAGUNI AIRPORT, JP) observed 1100 UTC 21 May 2019
Temperature: 24.0°C (75°F)
Dewpoint: 16.0°C (61°F) [RH = 61%]
Pressure (altimeter): 29.82 inches Hg (1010.0 mb)
Winds: from the NE (40 degrees) at 16 MPH (14 knots; 7.2 m/s)
Visibility: 6 or more miles (10+ km)
Ceiling: at least 12,000 feet AGL
Clouds: sky clear below 12,000 feet AGL
Weather: no significant weather observed at this time

METAR text: ROYN 211000Z AUTO 02016KT 9999 NCD 24/15 Q1010
Conditions at: ROYN (YONAGUNI AIRPORT, JP) observed 1000 UTC 21 May 2019
Temperature: 24.0°C (75°F)
Dewpoint: 15.0°C (59°F) [RH = 57%]
Pressure (altimeter): 29.82 inches Hg (1010.0 mb)
Winds: from the NNE (20 degrees) at 18 MPH (16 knots; 8.2 m/s)
Visibility: 6 or more miles (10+ km)
Ceiling: at least 12,000 feet AGL
Clouds: sky clear below 12,000 feet AGL
Weather: no significant weather observed at this time

METAR text: ROYN 210900Z AUTO 01015KT 9999 NSC 25/15 Q1009
Conditions at: ROYN (YONAGUNI AIRPORT, JP) observed 0900 UTC 21 May 2019
Temperature: 25.0°C (77°F)
Dewpoint: 15.0°C (59°F) [RH = 54%]
Pressure (altimeter): 29.79 inches Hg (1009.0 mb)
Winds: from the N (10 degrees) at 17 MPH (15 knots; 7.7 m/s)
Visibility: 6 or more miles (10+ km)
Ceiling: at least 12,000 feet AGL
Clouds: sky clear below 12,000 feet AGL
Weather: no significant weather observed at this time

METAR text: ROYN 210800Z AUTO 02014KT 9999 NSC 26/15 Q1010
Conditions at: ROYN (YONAGUNI AIRPORT, JP) observed 0800 UTC 21 May 2019
Temperature: 26.0°C (79°F)
Dewpoint: 15.0°C (59°F) [RH = 51%]
Pressure (altimeter): 29.82 inches Hg (1010.0 mb)
Winds: from the NNE (20 degrees) at 16 MPH (14 knots; 7.2 m/s)
Visibility: 6 or more miles (10+ km)
Ceiling: at least 12,000 feet AGL
Clouds: sky clear below 12,000 feet AGL
Weather: no significant weather observed at this time

METAR text: ROYN 210700Z AUTO 02016KT 9999 NSC 26/16 Q1010
Conditions at: ROYN (YONAGUNI AIRPORT, JP) observed 0700 UTC 21 May 2019
Temperature: 26.0°C (79°F)
Dewpoint: 16.0°C (61°F) [RH = 54%]
Pressure (altimeter): 29.82 inches Hg (1010.0 mb)
Winds: from the NNE (20 degrees) at 18 MPH (16 knots; 8.2 m/s)
Visibility: 6 or more miles (10+ km)
Ceiling: at least 12,000 feet AGL
Clouds: sky clear below 12,000 feet AGL
Weather: no significant weather observed at this time

METAR text: ROYN 210600Z AUTO 02016KT 9999 NCD 26/17 Q1010
Conditions at: ROYN (YONAGUNI AIRPORT, JP) observed 0600 UTC 21 May 2019
Temperature: 26.0°C (79°F)
Dewpoint: 17.0°C (63°F) [RH = 58%]
Pressure (altimeter): 29.82 inches Hg (1010.0 mb)
Winds: from the NNE (20 degrees) at 18 MPH (16 knots; 8.2 m/s)
Visibility: 6 or more miles (10+ km)
Ceiling: at least 12,000 feet AGL
Clouds: sky clear below 12,000 feet AGL
Weather: no significant weather observed at this time

METAR text: ROYN 210500Z AUTO 02018KT 9999 NSC 26/16 Q1010
Conditions at: ROYN (YONAGUNI AIRPORT, JP) observed 0500 UTC 21 May 2019
Temperature: 26.0°C (79°F)
Dewpoint: 16.0°C (61°F) [RH = 54%]
Pressure (altimeter): 29.82 inches Hg (1010.0 mb)
Winds: from the NNE (20 degrees) at 21 MPH (18 knots; 9.3 m/s)
Visibility: 6 or more miles (10+ km)
Ceiling: at least 12,000 feet AGL
Clouds: sky clear below 12,000 feet AGL
Weather: no significant weather observed at this time

METAR text: ROYN 210400Z AUTO 02018KT 9999 NSC 26/16 Q1011
Conditions at: ROYN (YONAGUNI AIRPORT, JP) observed 0400 UTC 21 May 2019
Temperature: 26.0°C (79°F)
Dewpoint: 16.0°C (61°F) [RH = 54%]
Pressure (altimeter): 29.85 inches Hg (1011.0 mb)
Winds: from the NNE (20 degrees) at 21 MPH (18 knots; 9.3 m/s)
Visibility: 6 or more miles (10+ km)
Ceiling: at least 12,000 feet AGL
Clouds: sky clear below 12,000 feet AGL
Weather: no significant weather observed at this time

METAR text: ROYN 210300Z AUTO 02020KT 9999 NCD 26/17 Q1011
Conditions at: ROYN (YONAGUNI AIRPORT, JP) observed 0300 UTC 21 May 2019
Temperature: 26.0°C (79°F)
Dewpoint: 17.0°C (63°F) [RH = 58%]
Pressure (altimeter): 29.85 inches Hg (1011.0 mb)
Winds: from the NNE (20 degrees) at 23 MPH (20 knots; 10.3 m/s)
Visibility: 6 or more miles (10+ km)
Ceiling: at least 12,000 feet AGL
Clouds: sky clear below 12,000 feet AGL
Weather: no significant weather observed at this time

METAR text: ROYN 210200Z AUTO 02019KT 9999 FEW042 SCT070 BKN220 26/17 Q1012
Conditions at: ROYN (YONAGUNI AIRPORT, JP) observed 0200 UTC 21 May 2019
Temperature: 26.0°C (79°F)
Dewpoint: 17.0°C (63°F) [RH = 58%]
Pressure (altimeter): 29.88 inches Hg (1012.0 mb)
Winds: from the NNE (20 degrees) at 22 MPH (19 knots; 9.8 m/s)
Visibility: 6 or more miles (10+ km)
Ceiling: 22000 feet AGL
Clouds: few clouds at 4200 feet AGL
scattered clouds at 7000 feet AGL
broken clouds at 22000 feet AGL
Weather: no significant weather observed at this time

METAR text: ROYN 210100Z AUTO 03018KT 9999 SCT040 SCT070 BKN080 25/17 Q1012
Conditions at: ROYN (YONAGUNI AIRPORT, JP) observed 0100 UTC 21 May 2019
Temperature: 25.0°C (77°F)
Dewpoint: 17.0°C (63°F) [RH = 61%]
Pressure (altimeter): 29.88 inches Hg (1012.0 mb)
Winds: from the NNE (30 degrees) at 21 MPH (18 knots; 9.3 m/s)
Visibility: 6 or more miles (10+ km)
Ceiling: 8000 feet AGL
Clouds: scattered clouds at 4000 feet AGL
scattered clouds at 7000 feet AGL
broken clouds at 8000 feet AGL
Weather: no significant weather observed at this time

METAR text: ROYN 210000Z AUTO 03020KT 9999 FEW037 OVC070 25/17 Q1012
Conditions at: ROYN (YONAGUNI AIRPORT, JP) observed 0000 UTC 21 May 2019
Temperature: 25.0°C (77°F)
Dewpoint: 17.0°C (63°F) [RH = 61%]
Pressure (altimeter): 29.88 inches Hg (1012.0 mb)
Winds: from the NNE (30 degrees) at 23 MPH (20 knots; 10.3 m/s)
Visibility: 6 or more miles (10+ km)
Ceiling: 7000 feet AGL
Clouds: few clouds at 3700 feet AGL
overcast cloud deck at 7000 feet AGL
Weather: no significant weather observed at this time

METAR text: ROYN 202300Z AUTO 02021KT 9999 FEW042 SCT070 25/17 Q1011
Conditions at: ROYN (YONAGUNI AIRPORT, JP) observed 2300 UTC 20 May 2019
Temperature: 25.0°C (77°F)
Dewpoint: 17.0°C (63°F) [RH = 61%]
Pressure (altimeter): 29.85 inches Hg (1011.0 mb)
Winds: from the NNE (20 degrees) at 24 MPH (21 knots; 10.8 m/s)
Visibility: 6 or more miles (10+ km)
Ceiling: at least 12,000 feet AGL
Clouds: few clouds at 4200 feet AGL
scattered clouds at 7000 feet AGL
Weather: no significant weather observed at this time

METAR text: ROYN 202200Z AUTO 03020KT 9999 NSC 25/16 Q1011
Conditions at: ROYN (YONAGUNI AIRPORT, JP) observed 2200 UTC 20 May 2019
Temperature: 25.0°C (77°F)
Dewpoint: 16.0°C (61°F) [RH = 57%]
Pressure (altimeter): 29.85 inches Hg (1011.0 mb)
Winds: from the NNE (30 degrees) at 23 MPH (20 knots; 10.3 m/s)
Visibility: 6 or more miles (10+ km)
Ceiling: at least 12,000 feet AGL
Clouds: sky clear below 12,000 feet AGL
Weather: no significant weather observed at this time

METAR text: ROYN 202100Z AUTO 03022KT 9999 FEW043 24/16 Q1010
Conditions at: ROYN (YONAGUNI AIRPORT, JP) observed 2100 UTC 20 May 2019
Temperature: 24.0°C (75°F)
Dewpoint: 16.0°C (61°F) [RH = 61%]
Pressure (altimeter): 29.82 inches Hg (1010.0 mb)
Winds: from the NNE (30 degrees) at 25 MPH (22 knots; 11.3 m/s)
Visibility: 6 or more miles (10+ km)
Ceiling: at least 12,000 feet AGL
Clouds: few clouds at 4300 feet AGL
Weather: no significant weather observed at this time

METAR text: ROYN 202000Z AUTO 02021KT 9999 FEW033 SCT070 OVC080 24/18 Q1010
Conditions at: ROYN (YONAGUNI AIRPORT, JP) observed 2000 UTC 20 May 2019
Temperature: 24.0°C (75°F)
Dewpoint: 18.0°C (64°F) [RH = 69%]
Pressure (altimeter): 29.82 inches Hg (1010.0 mb)
Winds: from the NNE (20 degrees) at 24 MPH (21 knots; 10.8 m/s)
Visibility: 6 or more miles (10+ km)
Ceiling: 8000 feet AGL
Clouds: few clouds at 3300 feet AGL
scattered clouds at 7000 feet AGL
overcast cloud deck at 8000 feet AGL
Weather: no significant weather observed at this time

METAR text: ROYN 201900Z AUTO 02021KT 9999 SCT031 SCT070 24/19 Q1010
Conditions at: ROYN (YONAGUNI AIRPORT, JP) observed 1900 UTC 20 May 2019
Temperature: 24.0°C (75°F)
Dewpoint: 19.0°C (66°F) [RH = 74%]
Pressure (altimeter): 29.82 inches Hg (1010.0 mb)
Winds: from the NNE (20 degrees) at 24 MPH (21 knots; 10.8 m/s)
Visibility: 6 or more miles (10+ km)
Ceiling: at least 12,000 feet AGL
Clouds: scattered clouds at 3100 feet AGL
scattered clouds at 7000 feet AGL
Weather: no significant weather observed at this time

METAR text: ROYN 201800Z AUTO 02020KT 8000 BKN026 24/20 Q1010
Conditions at: ROYN (YONAGUNI AIRPORT, JP) observed 1800 UTC 20 May 2019
Temperature: 24.0°C (75°F)
Dewpoint: 20.0°C (68°F) [RH = 78%]
Pressure (altimeter): 29.82 inches Hg (1010.0 mb)
Winds: from the NNE (20 degrees) at 23 MPH (20 knots; 10.3 m/s)
Visibility: 5 miles ( 8 km)
Ceiling: 2600 feet AGL
Clouds: broken clouds at 2600 feet AGL
Weather: no significant weather observed at this time

METAR text: ROYN 201700Z AUTO 02020KT 8000 FEW023 SCT027 24/19 Q1009
Conditions at: ROYN (YONAGUNI AIRPORT, JP) observed 1700 UTC 20 May 2019
Temperature: 24.0°C (75°F)
Dewpoint: 19.0°C (66°F) [RH = 74%]
Pressure (altimeter): 29.79 inches Hg (1009.0 mb)
Winds: from the NNE (20 degrees) at 23 MPH (20 knots; 10.3 m/s)
Visibility: 5 miles ( 8 km)
Ceiling: at least 12,000 feet AGL
Clouds: few clouds at 2300 feet AGL
scattered clouds at 2700 feet AGL
Weather: no significant weather observed at this time

METAR text: ROYN 201600Z AUTO 02022KT //// // FEW022 BKN050 OVC060 25/20 Q1010
Conditions at: ROYN (YONAGUNI AIRPORT, JP) observed 1600 UTC 20 May 2019
Temperature: 25.0°C (77°F)
Dewpoint: 20.0°C (68°F) [RH = 74%]
Pressure (altimeter): 29.82 inches Hg (1010.0 mb)
Winds: from the NNE (20 degrees) at 25 MPH (22 knots; 11.3 m/s)
Visibility: missing
Ceiling: 5000 feet AGL
Clouds: few clouds at 2200 feet AGL
broken clouds at 5000 feet AGL
overcast cloud deck at 6000 feet AGL
Weather: no significant weather observed at this time

METAR text: ROYN 201500Z AUTO 01023KT //// // FEW032 BKN040 OVC044 25/21 Q1010
Conditions at: ROYN (YONAGUNI AIRPORT, JP) observed 1500 UTC 20 May 2019
Temperature: 25.0°C (77°F)
Dewpoint: 21.0°C (70°F) [RH = 79%]
Pressure (altimeter): 29.82 inches Hg (1010.0 mb)
Winds: from the N (10 degrees) at 26 MPH (23 knots; 11.8 m/s)
Visibility: missing
Ceiling: 4000 feet AGL
Clouds: few clouds at 3200 feet AGL
broken clouds at 4000 feet AGL
overcast cloud deck at 4400 feet AGL
Weather: no significant weather observed at this time

METAR text: ROYN 201400Z AUTO 01025KT //// // BKN030 OVC035 25/20 Q1010
Conditions at: ROYN (YONAGUNI AIRPORT, JP) observed 1400 UTC 20 May 2019
Temperature: 25.0°C (77°F)
Dewpoint: 20.0°C (68°F) [RH = 74%]
Pressure (altimeter): 29.82 inches Hg (1010.0 mb)
Winds: from the N (10 degrees) at 29 MPH (25 knots; 12.9 m/s)
Visibility: missing
Ceiling: 3000 feet AGL
Clouds: broken clouds at 3000 feet AGL
overcast cloud deck at 3500 feet AGL
Weather: no significant weather observed at this time

METAR text: ROYN 201300Z AUTO 01026KT //// -RA BR FEW009 BKN021 BKN025 24/22 Q1010
Conditions at: ROYN (YONAGUNI AIRPORT, JP) observed 1300 UTC 20 May 2019
Temperature: 24.0°C (75°F)
Dewpoint: 22.0°C (72°F) [RH = 89%]
Pressure (altimeter): 29.82 inches Hg (1010.0 mb)
Winds: from the N (10 degrees) at 30 MPH (26 knots; 13.4 m/s)
Visibility: missing
Ceiling: 2100 feet AGL
Clouds: few clouds at 900 feet AGL
broken clouds at 2100 feet AGL
broken clouds at 2500 feet AGL
Weather: -RA BR  (light rain, mist)

METAR text: ROYN 201200Z AUTO 02024KT //// -RA BR BKN013 OVC020 24/22 Q1009
Conditions at: ROYN (YONAGUNI AIRPORT, JP) observed 1200 UTC 20 May 2019
Temperature: 24.0°C (75°F)
Dewpoint: 22.0°C (72°F) [RH = 89%]
Pressure (altimeter): 29.79 inches Hg (1009.0 mb)
Winds: from the NNE (20 degrees) at 28 MPH (24 knots; 12.3 m/s)
Visibility: missing
Ceiling: 1300 feet AGL
Clouds: broken clouds at 1300 feet AGL
overcast cloud deck at 2000 feet AGL
Weather: -RA BR  (light rain, mist)

METAR text: ROYN 201100Z AUTO 01028KT 9999 BKN016 OVC022 25/22 Q1008
Conditions at: ROYN (YONAGUNI AIRPORT, JP) observed 1100 UTC 20 May 2019
Temperature: 25.0°C (77°F)
Dewpoint: 22.0°C (72°F) [RH = 83%]
Pressure (altimeter): 29.76 inches Hg (1008.0 mb)
Winds: from the N (10 degrees) at 32 MPH (28 knots; 14.4 m/s)
Visibility: 6 or more miles (10+ km)
Ceiling: 1600 feet AGL
Clouds: broken clouds at 1600 feet AGL
overcast cloud deck at 2200 feet AGL
Weather: no significant weather observed at this time

METAR text: ROYN 201000Z AUTO 01026KT 9999 FEW015 OVC020 25/23 Q1008
Conditions at: ROYN (YONAGUNI AIRPORT, JP) observed 1000 UTC 20 May 2019
Temperature: 25.0°C (77°F)
Dewpoint: 23.0°C (73°F) [RH = 89%]
Pressure (altimeter): 29.76 inches Hg (1008.0 mb)
Winds: from the N (10 degrees) at 30 MPH (26 knots; 13.4 m/s)
Visibility: 6 or more miles (10+ km)
Ceiling: 2000 feet AGL
Clouds: few clouds at 1500 feet AGL
overcast cloud deck at 2000 feet AGL
Weather: no significant weather observed at this time

METAR text: ROYN 200900Z AUTO 01024KT 9000 SCT014 BKN017 OVC020 25/23 Q1007
Conditions at: ROYN (YONAGUNI AIRPORT, JP) observed 0900 UTC 20 May 2019
Temperature: 25.0°C (77°F)
Dewpoint: 23.0°C (73°F) [RH = 89%]
Pressure (altimeter): 29.73 inches Hg (1007.0 mb)
Winds: from the N (10 degrees) at 28 MPH (24 knots; 12.3 m/s)
Visibility: 6 miles ( 9 km)
Ceiling: 1700 feet AGL
Clouds: scattered clouds at 1400 feet AGL
broken clouds at 1700 feet AGL
overcast cloud deck at 2000 feet AGL
Weather: no significant weather observed at this time

METAR text: ROYN 200800Z AUTO 01024KT 9999 BKN011 OVC015 25/23 Q1007
Conditions at: ROYN (YONAGUNI AIRPORT, JP) observed 0800 UTC 20 May 2019
Temperature: 25.0°C (77°F)
Dewpoint: 23.0°C (73°F) [RH = 89%]
Pressure (altimeter): 29.73 inches Hg (1007.0 mb)
Winds: from the N (10 degrees) at 28 MPH (24 knots; 12.3 m/s)
Visibility: 6 or more miles (10+ km)
Ceiling: 1100 feet AGL
Clouds: broken clouds at 1100 feet AGL
overcast cloud deck at 1500 feet AGL
Weather: no significant weather observed at this time

METAR text: ROYN 200700Z AUTO 01021KT 9000 -RA FEW011 SCT017 OVC020 26/24 Q1007
Conditions at: ROYN (YONAGUNI AIRPORT, JP) observed 0700 UTC 20 May 2019
Temperature: 26.0°C (79°F)
Dewpoint: 24.0°C (75°F) [RH = 89%]
Pressure (altimeter): 29.73 inches Hg (1007.0 mb)
Winds: from the N (10 degrees) at 24 MPH (21 knots; 10.8 m/s)
Visibility: 6 miles ( 9 km)
Ceiling: 2000 feet AGL
Clouds: few clouds at 1100 feet AGL
scattered clouds at 1700 feet AGL
overcast cloud deck at 2000 feet AGL
Weather: -RA  (light rain)

METAR text: ROYN 200600Z AUTO 01021KT 9999 -RA SCT009 BKN010 OVC016 26/25 Q1007
Conditions at: ROYN (YONAGUNI AIRPORT, JP) observed 0600 UTC 20 May 2019
Temperature: 26.0°C (79°F)
Dewpoint: 25.0°C (77°F) [RH = 94%]
Pressure (altimeter): 29.73 inches Hg (1007.0 mb)
Winds: from the N (10 degrees) at 24 MPH (21 knots; 10.8 m/s)
Visibility: 6 or more miles (10+ km)
Ceiling: 1000 feet AGL
Clouds: scattered clouds at 900 feet AGL
broken clouds at 1000 feet AGL
overcast cloud deck at 1600 feet AGL
Weather: -RA  (light rain)

METAR text: ROYN 200537Z AUTO 01021KT 7000 -RA BKN009 BKN010 OVC036 26/25 Q1007 RMK A2975
Conditions at: ROYN (YONAGUNI AIRPORT, JP) observed 0537 UTC 20 May 2019
Temperature: 26.0°C (79°F)
Dewpoint: 25.0°C (77°F) [RH = 94%]
Pressure (altimeter): 29.73 inches Hg (1007.0 mb)
Winds: from the N (10 degrees) at 24 MPH (21 knots; 10.8 m/s)
Visibility: 4 miles ( 7 km)
Ceiling: 900 feet AGL
Clouds: broken clouds at 900 feet AGL
broken clouds at 1000 feet AGL
overcast cloud deck at 3600 feet AGL
Weather: -RA  (light rain)

METAR text: ROYN 200534Z AUTO 01022KT 9000 -RA SCT009 SCT010 BKN011 26/25 Q1007 RMK A2975
Conditions at: ROYN (YONAGUNI AIRPORT, JP) observed 0534 UTC 20 May 2019
Temperature: 26.0°C (79°F)
Dewpoint: 25.0°C (77°F) [RH = 94%]
Pressure (altimeter): 29.73 inches Hg (1007.0 mb)
Winds: from the N (10 degrees) at 25 MPH (22 knots; 11.3 m/s)
Visibility: 6 miles ( 9 km)
Ceiling: 1100 feet AGL
Clouds: scattered clouds at 900 feet AGL
scattered clouds at 1000 feet AGL
broken clouds at 1100 feet AGL
Weather: -RA  (light rain)

METAR text: ROYN 200529Z AUTO 01021KT 8000 -RA BKN009 BKN010 BKN015 26/25 Q1007 RMK A2974
Conditions at: ROYN (YONAGUNI AIRPORT, JP) observed 0529 UTC 20 May 2019
Temperature: 26.0°C (79°F)
Dewpoint: 25.0°C (77°F) [RH = 94%]
Pressure (altimeter): 29.73 inches Hg (1007.0 mb)
Winds: from the N (10 degrees) at 24 MPH (21 knots; 10.8 m/s)
Visibility: 5 miles ( 8 km)
Ceiling: 900 feet AGL
Clouds: broken clouds at 900 feet AGL
broken clouds at 1000 feet AGL
broken clouds at 1500 feet AGL
Weather: -RA  (light rain)

METAR text: ROYN 200521Z AUTO 01022KT 6000 -RA BKN008 BKN010 OVC020 26/25 Q1007 RMK A2974
Conditions at: ROYN (YONAGUNI AIRPORT, JP) observed 0521 UTC 20 May 2019
Temperature: 26.0°C (79°F)
Dewpoint: 25.0°C (77°F) [RH = 94%]
Pressure (altimeter): 29.73 inches Hg (1007.0 mb)
Winds: from the N (10 degrees) at 25 MPH (22 knots; 11.3 m/s)
Visibility: 4 miles ( 6 km)
Ceiling: 800 feet AGL
Clouds: broken clouds at 800 feet AGL
broken clouds at 1000 feet AGL
overcast cloud deck at 2000 feet AGL
Weather: -RA  (light rain)

METAR text: ROYN 200508Z AUTO 01023KT 7000 -RA BKN009 BKN012 OVC036 26/25 Q1007 RMK A2974
Conditions at: ROYN (YONAGUNI AIRPORT, JP) observed 0508 UTC 20 May 2019
Temperature: 26.0°C (79°F)
Dewpoint: 25.0°C (77°F) [RH = 94%]
Pressure (altimeter): 29.73 inches Hg (1007.0 mb)
Winds: from the N (10 degrees) at 26 MPH (23 knots; 11.8 m/s)
Visibility: 4 miles ( 7 km)
Ceiling: 900 feet AGL
Clouds: broken clouds at 900 feet AGL
broken clouds at 1200 feet AGL
overcast cloud deck at 3600 feet AGL
Weather: -RA  (light rain)

METAR text: ROYN 200500Z AUTO 01023KT 9000 -RA FEW009 SCT010 BKN017 26/25 Q1007
Conditions at: ROYN (YONAGUNI AIRPORT, JP) observed 0500 UTC 20 May 2019
Temperature: 26.0°C (79°F)
Dewpoint: 25.0°C (77°F) [RH = 94%]
Pressure (altimeter): 29.73 inches Hg (1007.0 mb)
Winds: from the N (10 degrees) at 26 MPH (23 knots; 11.8 m/s)
Visibility: 6 miles ( 9 km)
Ceiling: 1700 feet AGL
Clouds: few clouds at 900 feet AGL
scattered clouds at 1000 feet AGL
broken clouds at 1700 feet AGL
Weather: -RA  (light rain)

METAR text: ROYN 200400Z AUTO 36022KT 9999 BKN011 OVC033 27/25 Q1007
Conditions at: ROYN (YONAGUNI AIRPORT, JP) observed 0400 UTC 20 May 2019
Temperature: 27.0°C (81°F)
Dewpoint: 25.0°C (77°F) [RH = 89%]
Pressure (altimeter): 29.73 inches Hg (1007.0 mb)
Winds: from the N (360 degrees) at 25 MPH (22 knots; 11.3 m/s)
Visibility: 6 or more miles (10+ km)
Ceiling: 1100 feet AGL
Clouds: broken clouds at 1100 feet AGL
overcast cloud deck at 3300 feet AGL
Weather: no significant weather observed at this time

METAR text: ROYN 200305Z AUTO 35020KT 9999 FEW009 BKN010 //////TCU 27/25 Q1007 RMK A2974 TCU 35KM E MOV S
Conditions at: ROYN (YONAGUNI AIRPORT, JP) observed 0305 UTC 20 May 2019
Temperature: 27.0°C (81°F)
Dewpoint: 25.0°C (77°F) [RH = 89%]
Pressure (altimeter): 29.73 inches Hg (1007.0 mb)
Winds: from the N (350 degrees) at 23 MPH (20 knots; 10.3 m/s)
Visibility: 6 or more miles (10+ km)
Ceiling: 1000 feet AGL
Clouds: few clouds at 900 feet AGL
broken clouds at 1000 feet AGL
Weather: no significant weather observed at this time